Time;durP1;ratioP1;P1;durP2;ratioP2;P2;SDS_P1;SDS_P2;PMS_P1;PMS_P2;Temp;Humidity;BMP_temperature;BMP_pressure;BME280_temperature;BME280_humidity;BME280_pressure;Samples;Min_cycle;Max_cycle;Signal;HPM_P1;HPM_P2
2022/12/25 00:01:22;;;;;;;0.10;0.10;;;6.80;99.90;;;;;;6158328;23;20009;-95
2022/12/25 00:03:48;;;;;;;0.10;0.10;;;;;;;;;;6157656;23;20081;-94
2022/12/25 00:06:13;;;;;;;0.10;0.10;;;6.80;99.90;;;;;;6155075;23;19985;-96
2022/12/25 00:08:40;;;;;;;0.10;0.10;;;;;;;;;;6157122;23;19993;-95
2022/12/25 00:11:12;;;;;;;0.10;0.10;;;6.80;99.90;;;;;;6157755;23;20341;-95
2022/12/25 00:13:41;;;;;;;0.05;0.05;;;6.70;99.90;;;;;;6156209;23;19994;-95
2022/12/25 00:16:09;;;;;;;0.10;0.10;;;6.80;99.90;;;;;;6156417;23;20013;-95
2022/12/25 00:18:35;;;;;;;0.10;0.10;;;;;;;;;;6153889;23;20038;-96
2022/12/25 00:21:03;;;;;;;0.10;0.10;;;6.70;99.90;;;;;;6153378;23;20021;-95
2022/12/25 00:23:29;;;;;;;0.10;0.10;;;6.70;99.90;;;;;;6152516;23;20214;-96
2022/12/25 00:25:55;;;;;;;0.10;0.10;;;;;;;;;;6153719;23;20199;-95
2022/12/25 00:28:21;;;;;;;0.10;0.10;;;6.70;99.90;;;;;;6152761;23;20005;-95
2022/12/25 00:30:47;;;;;;;0.10;0.10;;;;;;;;;;6152427;23;20000;-94
2022/12/25 00:33:13;;;;;;;0.10;0.10;;;6.70;99.90;;;;;;6153432;23;19990;-96
2022/12/25 00:35:39;;;;;;;0.10;0.10;;;6.70;99.90;;;;;;6152705;23;20053;-95
2022/12/25 00:38:05;;;;;;;0.15;0.15;;;;;;;;;;6152332;23;20009;-95
2022/12/25 00:40:31;;;;;;;0.10;0.10;;;;;;;;;;6151340;23;20021;-96
2022/12/25 00:42:56;;;;;;;0.10;0.10;;;6.50;99.90;;;;;;6149849;23;20046;-96
2022/12/25 00:45:22;;;;;;;0.10;0.10;;;;;;;;;;6151868;23;20010;-96
2022/12/25 00:47:48;;;;;;;0.10;0.10;;;;;;;;;;6151064;23;20021;-95
2022/12/25 00:50:14;;;;;;;0.10;0.10;;;;;;;;;;6152670;23;19994;-96
2022/12/25 00:52:40;;;;;;;0.10;0.10;;;;;;;;;;6151031;23;20021;-96
2022/12/25 00:55:06;;;;;;;0.10;0.10;;;6.50;99.90;;;;;;6151630;23;20053;-95
2022/12/25 00:57:32;;;;;;;0.10;0.10;;;6.60;99.90;;;;;;6151104;23;20017;-96
2022/12/25 00:59:58;;;;;;;0.10;0.10;;;;;;;;;;6150857;23;20034;-94
2022/12/25 01:02:24;;;;;;;0.10;0.10;;;6.70;99.90;;;;;;6151476;23;19997;-96
2022/12/25 01:04:55;;;;;;;0.10;0.10;;;6.70;99.90;;;;;;6151781;23;19994;-95
2022/12/25 01:07:22;;;;;;;0.10;0.10;;;6.70;99.90;;;;;;6149997;23;20062;-94
2022/12/25 01:12:53;;;;;;;0.10;0.10;;;6.60;99.90;;;;;;6118220;23;19998;-96
2022/12/25 01:15:18;;;;;;;0.10;0.10;;;6.70;99.90;;;;;;6097701;23;19994;-95
2022/12/25 01:17:44;;;;;;;0.10;0.10;;;;;;;;;;6124523;23;20008;-95
2022/12/25 01:20:11;;;;;;;0.10;0.10;;;6.70;99.90;;;;;;6156347;23;20036;-95
2022/12/25 01:22:37;;;;;;;0.10;0.10;;;;;;;;;;6155814;23;19989;-95
2022/12/25 01:25:04;;;;;;;0.10;0.10;;;6.60;99.90;;;;;;6153899;23;20607;-96
2022/12/25 01:27:31;;;;;;;0.10;0.10;;;6.70;99.90;;;;;;6156193;23;19993;-95
2022/12/25 01:29:57;;;;;;;0.10;0.10;;;;;;;;;;6155303;23;20048;-95
2022/12/25 01:32:23;;;;;;;0.10;0.10;;;;;;;;;;6156371;23;20009;-95
2022/12/25 01:34:49;;;;;;;0.10;0.10;;;;;;;;;;6153843;23;19997;-96
2022/12/25 01:37:15;;;;;;;0.10;0.10;;;;;;;;;;6155703;23;19999;-95
2022/12/25 01:39:41;;;;;;;0.10;0.10;;;;;;;;;;6155330;23;20053;-94
2022/12/25 01:42:15;;;;;;;0.10;0.10;;;7.10;99.90;;;;;;6154190;23;20013;-96
2022/12/25 01:44:44;;;;;;;0.10;0.10;;;7.10;99.90;;;;;;6154154;23;20021;-96
2022/12/25 01:47:10;;;;;;;0.10;0.10;;;;;;;;;;6156446;23;19994;-95
2022/12/25 01:49:38;;;;;;;0.10;0.10;;;7.30;99.90;;;;;;6156382;23;20000;-95
2022/12/25 01:52:14;;;;;;;0.10;0.10;;;7.30;99.90;;;;;;6155122;23;20044;-96
2022/12/25 01:54:40;;;;;;;0.00;0.00;;;;;;;;;;6153711;23;19997;-96
2022/12/25 01:57:10;;;;;;;0.10;0.10;;;7.30;99.90;;;;;;6155737;23;19994;-95
2022/12/25 01:59:36;;;;;;;0.10;0.10;;;;;;;;;;6156056;23;20018;-95
2022/12/25 02:02:03;;;;;;;0.10;0.10;;;;;;;;;;6153385;23;20014;-96
2022/12/25 02:04:40;;;;;;;0.10;0.10;;;7.50;99.90;;;;;;6154302;23;20025;-96
2022/12/25 02:07:13;;;;;;;0.10;0.10;;;7.50;99.90;;;;;;6154423;23;20009;-95
2022/12/25 02:09:39;;;;;;;0.10;0.10;;;;;;;;;;6148549;23;20025;-91
2022/12/25 02:12:09;;;;;;;0.10;0.10;;;7.50;99.90;;;;;;6164915;23;20009;-91
2022/12/25 02:14:36;;;;;;;0.10;0.10;;;7.50;99.90;;;;;;6164503;23;20009;-91
2022/12/25 02:17:17;;;;;;;0.10;0.10;;;7.60;99.90;;;;;;6162843;23;20005;-92
2022/12/25 02:20:12;;;;;;;0.10;0.10;;;7.70;99.90;;;;;;6164987;23;20450;-91
2022/12/25 02:23:16;;;;;;;0.10;0.10;;;8.20;99.90;;;;;;6161788;23;20163;-89
2022/12/25 02:26:07;;;;;;;0.10;0.10;;;7.70;99.90;;;;;;6167156;23;19997;-91
2022/12/25 02:28:59;;;;;;;0.10;0.10;;;7.70;99.90;;;;;;6167965;23;20001;-91
2022/12/25 02:31:36;;;;;;;0.10;0.10;;;7.70;99.90;;;;;;6168546;23;20005;-91
2022/12/25 02:34:14;;;;;;;0.10;0.10;;;7.70;99.90;;;;;;6167399;23;20012;-91
2022/12/25 02:37:13;;;;;;;0.10;0.10;;;7.90;99.90;;;;;;6166707;23;20346;-90
2022/12/25 02:39:57;;;;;;;0.10;0.10;;;7.90;99.90;;;;;;6165778;23;20004;-92
2022/12/25 03:06:41;;;;;;;0.10;0.10;;;7.80;99.90;;;;;;6164619;23;20011;-91
2022/12/25 03:07:46;;;;;;;0.10;0.10;;;;;;;;;;6174821;23;20043;-91
2022/12/25 03:13:16;;;;;;;0.10;0.10;;;8.10;99.90;;;;;;6166086;23;20039;-92
2022/12/25 03:18:30;;;;;;;0.10;0.10;;;8.30;99.90;;;;;;6163193;23;20044;-91
2022/12/25 03:31:10;;;;;;;0.10;0.10;;;;;;;;;;6160979;23;20052;-92
2022/12/25 03:32:21;;;;;;;0.10;0.10;;;8.40;99.90;;;;;;6161133;23;20473;-90
2022/12/25 03:35:24;;;;;;;0.10;0.10;;;8.30;99.90;;;;;;6164500;23;19998;-91
2022/12/25 04:56:47;;;;;;;0.10;0.10;;;;;;;;;;6209424;23;20007;-93
2022/12/25 04:59:13;;;;;;;0.10;0.10;;;;;;;;;;6188253;23;20013;-92
2022/12/25 05:01:39;;;;;;;0.10;0.10;;;;;;;;;;6188517;23;19997;-93
2022/12/25 05:04:05;;;;;;;0.10;0.10;;;;;;;;;;6188439;23;20009;-93
2022/12/25 05:06:31;;;;;;;0.10;0.10;;;;;;;;;;6187314;23;19997;-92
2022/12/25 05:08:57;;;;;;;0.10;0.10;;;;;;;;;;6188163;23;20005;-92
2022/12/25 05:13:59;;;;;;;0.10;0.10;;;;;;;;;;6213803;23;20008;-96
2022/12/25 05:29:22;;;;;;;0.10;0.10;;;;;;;;;;6209216;23;19996;-95
2022/12/25 05:31:47;;;;;;;0.10;0.10;;;;;;;;;;6184253;22;20040;-95
2022/12/25 05:47:10;;;;;;;0.10;0.10;;;;;;;;;;6213100;23;20001;-94
2022/12/25 05:49:36;;;;;;;0.00;0.00;;;;;;;;;;6187752;23;19996;-96
2022/12/25 05:52:02;;;;;;;0.10;0.10;;;;;;;;;;6187588;23;19997;-93
2022/12/25 06:20:22;;;;;;;0.10;0.10;;;;;;;;;;6203241;23;20009;-94
2022/12/25 06:22:48;;;;;;;0.10;0.10;;;;;;;;;;6187273;23;20000;-96
2022/12/25 06:25:14;;;;;;;0.10;0.10;;;;;;;;;;6187602;23;20000;-95
2022/12/25 06:27:40;;;;;;;0.10;0.10;;;;;;;;;;6187228;23;19997;-94
2022/12/25 06:37:52;;;;;;;0.10;0.10;;;;;;;;;;6170595;23;20064;-94
2022/12/25 06:40:18;;;;;;;0.10;0.10;;;;;;;;;;6170369;23;20005;-95
2022/12/25 06:42:44;;;;;;;0.10;0.10;;;;;;;;;;6187854;23;19982;-96
2022/12/25 06:45:10;;;;;;;0.10;0.10;;;;;;;;;;6186460;23;19993;-96
2022/12/25 06:47:37;;;;;;;0.10;0.10;;;8.70;99.90;;;;;;6187393;23;19992;-95
2022/12/25 07:47:05;;;;;;;0.10;0.10;;;;;;;;;;6174075;23;20028;-92
2022/12/25 07:49:31;;;;;;;0.10;0.10;;;;;;;;;;6149161;23;20010;-92
2022/12/25 07:51:57;;;;;;;0.10;0.10;;;8.80;99.90;;;;;;6144706;23;20024;-93
2022/12/25 07:54:23;;;;;;;0.10;0.10;;;;;;;;;;6145905;23;20016;-93
2022/12/25 08:17:29;;;;;;;0.08;0.08;;;;;;;;;;6188459;23;20076;-89
2022/12/25 08:19:55;;;;;;;0.10;0.10;;;;;;;;;;6160690;23;20028;-91
2022/12/25 08:22:21;;;;;;;0.10;0.10;;;;;;;;;;6163684;23;20096;-88
2022/12/25 08:24:47;;;;;;;0.10;0.10;;;;;;;;;;6163528;23;20005;-90
2022/12/25 08:27:13;;;;;;;0.10;0.10;;;;;;;;;;6164005;23;20024;-90
2022/12/25 08:29:39;;;;;;;0.10;0.10;;;;;;;;;;6163831;23;20039;-90
2022/12/25 08:32:05;;;;;;;0.10;0.10;;;;;;;;;;6159770;23;20055;-90
2022/12/25 08:34:31;;;;;;;0.00;0.00;;;;;;;;;;6161403;23;20005;-89
2022/12/25 08:36:57;;;;;;;0.10;0.10;;;;;;;;;;6158405;23;20032;-89
2022/12/25 08:39:23;;;;;;;0.10;0.10;;;;;;;;;;6161692;23;20005;-89
2022/12/25 08:41:49;;;;;;;0.10;0.10;;;;;;;;;;6160118;23;20346;-91
2022/12/25 08:44:15;;;;;;;0.10;0.10;;;;;;;;;;6161030;23;20001;-91
2022/12/25 08:46:41;;;;;;;0.10;0.10;;;;;;;;;;6162091;23;20005;-91
2022/12/25 08:49:07;;;;;;;0.10;0.10;;;;;;;;;;6160328;23;20043;-89
2022/12/25 08:51:36;;;;;;;0.10;0.10;;;;;;;;;;6160927;23;20001;-90
2022/12/25 08:54:01;;;;;;;0.10;0.10;;;;;;;;;;6159830;23;20107;-89
2022/12/25 08:56:31;;;;;;;0.10;0.10;;;;;;;;;;6177009;23;20001;-90
2022/12/25 08:58:58;;;;;;;0.10;0.10;;;;;;;;;;6197384;23;20002;-92
2022/12/25 09:01:24;;;;;;;0.03;0.03;;;;;;;;;;6173361;23;20083;-92
2022/12/25 09:03:50;;;;;;;0.10;0.10;;;;;;;;;;6173483;23;20012;-93
2022/12/25 09:06:16;;;;;;;0.10;0.10;;;;;;;;;;6178640;23;20062;-92
2022/12/25 09:08:42;;;;;;;0.10;0.10;;;8.80;99.90;;;;;;6178506;23;20083;-92
2022/12/25 09:11:10;;;;;;;0.10;0.10;;;8.80;99.90;;;;;;6180788;23;20005;-91
2022/12/25 09:13:37;;;;;;;0.10;0.10;;;;;;;;;;6180274;23;20015;-92
2022/12/25 09:16:11;;;;;;;0.00;0.00;;;8.90;99.90;;;;;;6180758;23;20020;-90
2022/12/25 09:18:37;;;;;;;0.03;0.03;;;;;;;;;;6179255;23;20092;-89
2022/12/25 09:21:09;;;;;;;0.00;0.00;;;8.90;99.90;;;;;;6180447;23;20013;-91
2022/12/25 09:23:36;;;;;;;0.00;0.00;;;;;;;;;;6180224;23;20008;-92
2022/12/25 09:26:03;;;;;;;0.10;0.10;;;9.20;99.90;;;;;;6181881;23;20012;-91
2022/12/25 09:28:29;;;;;;;0.00;0.00;;;;;;;;;;6180238;23;20001;-93
2022/12/25 09:30:55;;;;;;;0.10;0.10;;;;;;;;;;6181325;23;20009;-92
2022/12/25 09:33:22;;;;;;;0.10;0.10;;;9.20;99.90;;;;;;6180685;23;20008;-90
2022/12/25 09:35:58;;;;;;;0.00;0.00;;;9.30;99.90;;;;;;6181950;23;20016;-92
2022/12/25 09:38:25;;;;;;;0.10;0.10;;;;;;;;;;6181981;23;20005;-91
2022/12/25 09:41:15;;;;;;;0.05;0.05;;;9.30;99.90;;;;;;6181259;23;20005;-91
2022/12/25 09:43:47;;;;;;;0.08;0.08;;;9.30;99.90;;;;;;6179688;23;20064;-92
2022/12/25 09:46:18;;;;;;;0.10;0.10;;;9.30;99.90;;;;;;6179866;23;20007;-92
2022/12/25 09:48:51;;;;;;;0.10;0.10;;;9.40;99.90;;;;;;6180239;23;20001;-91
2022/12/25 09:51:18;;;;;;;0.05;0.05;;;;;;;;;;6178089;23;20060;-91
2022/12/25 09:53:52;;;;;;;0.10;0.10;;;9.40;99.90;;;;;;6181393;23;20013;-91
2022/12/25 09:56:26;;;;;;;0.00;0.00;;;9.50;99.90;;;;;;6180778;23;20016;-91
2022/12/25 09:58:52;;;;;;;0.10;0.10;;;9.60;99.90;;;;;;6180423;23;20009;-94
2022/12/25 10:01:31;;;;;;;0.00;0.00;;;9.00;99.90;;;;;;6180448;23;20496;-92
2022/12/25 10:04:51;;;;;;;0.10;0.10;;;9.50;99.90;;;;;;6181428;23;20009;-89
2022/12/25 10:07:40;;;;;;;0.00;0.00;;;9.60;99.90;;;;;;6091301;23;20306;-93
2022/12/25 10:11:04;;;;;;;0.00;0.00;;;9.60;99.90;;;;;;6205467;23;20005;-92
2022/12/25 10:14:04;;;;;;;0.00;0.00;;;9.60;99.90;;;;;;6092204;23;20007;-91
2022/12/25 10:16:51;;;;;;;0.10;0.10;;;9.70;99.90;;;;;;6090622;23;20018;-92
2022/12/25 10:19:55;;;;;;;0.10;0.10;;;10.70;99.90;;;;;;6166284;23;20025;-91
2022/12/25 10:22:39;;;;;;;0.10;0.10;;;9.90;99.90;;;;;;6179219;23;20005;-92
2022/12/25 10:25:13;;;;;;;0.10;0.10;;;9.80;99.90;;;;;;6181975;23;20009;-91
2022/12/25 10:27:41;;;;;;;0.10;0.10;;;9.90;99.90;;;;;;6181699;23;20037;-91
2022/12/25 10:30:17;;;;;;;0.10;0.10;;;9.60;99.90;;;;;;6181314;23;20088;-92
2022/12/25 10:32:44;;;;;;;0.10;0.10;;;9.90;99.90;;;;;;6181050;23;20001;-91
2022/12/25 10:35:11;;;;;;;0.10;0.10;;;11.50;99.90;;;;;;6182097;23;20008;-92
2022/12/25 10:37:37;;;;;;;0.00;0.00;;;;;;;;;;6180050;23;20005;-91
2022/12/25 10:40:21;;;;;;;0.00;0.00;;;9.90;99.90;;;;;;6205957;23;19996;-91
2022/12/25 10:42:54;;;;;;;0.00;0.00;;;9.90;99.90;;;;;;6180494;23;20001;-92
2022/12/25 10:45:19;;;;;;;0.00;0.00;;;10.30;99.90;;;;;;6179972;23;19997;-91
2022/12/25 10:47:46;;;;;;;0.00;0.00;;;9.80;99.90;;;;;;6179804;23;20095;-91
2022/12/25 10:50:22;;;;;;;0.00;0.00;;;9.40;99.90;;;;;;6180965;23;20016;-92
2022/12/25 10:52:55;;;;;;;0.00;0.00;;;10.00;99.90;;;;;;6180251;23;20004;-91
2022/12/25 10:55:21;;;;;;;0.00;0.00;;;;;;;;;;6179674;23;20005;-91
2022/12/25 10:57:47;;;;;;;0.00;0.00;;;;;;;;;;6179821;23;20029;-91
2022/12/25 11:00:29;;;;;;;0.10;0.10;;;10.10;99.90;;;;;;6180407;23;20044;-91
2022/12/25 11:02:54;;;;;;;0.00;0.00;;;11.00;99.90;;;;;;6179442;23;20012;-90
2022/12/25 11:05:31;;;;;;;0.10;0.10;;;10.10;99.90;;;;;;6180280;23;20056;-90
2022/12/25 11:07:59;;;;;;;0.00;0.00;;;10.10;99.90;;;;;;6178984;23;20040;-90
2022/12/25 11:10:30;;;;;;;0.00;0.00;;;10.10;99.90;;;;;;6180621;23;20005;-91
2022/12/25 11:12:56;;;;;;;0.00;0.00;;;;;;;;;;6179376;23;20005;-91
2022/12/25 11:15:42;;;;;;;0.00;0.00;;;10.10;99.90;;;;;;6179868;23;20005;-90
2022/12/25 11:18:27;;;;;;;0.00;0.00;;;10.20;99.90;;;;;;6176578;23;20005;-90
2022/12/25 11:21:02;;;;;;;0.10;0.10;;;10.30;99.90;;;;;;6179043;23;20024;-90
2022/12/25 11:23:30;;;;;;;0.00;0.00;;;9.90;99.90;;;;;;6178877;23;19996;-91
2022/12/25 11:26:04;;;;;;;0.00;0.00;;;10.20;99.90;;;;;;6177750;23;20008;-91
2022/12/25 11:28:32;;;;;;;0.10;0.10;;;10.20;99.90;;;;;;6177826;23;20001;-90
2022/12/25 11:31:02;;;;;;;0.10;0.10;;;10.20;99.90;;;;;;6177733;23;20005;-90
2022/12/25 11:33:35;;;;;;;0.10;0.10;;;10.20;99.90;;;;;;6177061;23;20005;-90
2022/12/25 11:36:07;;;;;;;0.10;0.10;;;9.50;99.90;;;;;;6177512;23;20005;-90
2022/12/25 11:38:33;;;;;;;0.10;0.10;;;;;;;;;;6178430;23;20012;-90
2022/12/25 11:41:01;;;;;;;0.10;0.10;;;10.20;99.90;;;;;;6177267;23;20001;-91
2022/12/25 11:43:39;;;;;;;0.08;0.08;;;10.30;99.90;;;;;;6176327;23;20061;-91
2022/12/25 11:46:28;;;;;;;0.10;0.10;;;10.30;99.90;;;;;;6177520;23;20453;-90
2022/12/25 11:49:00;;;;;;;0.00;0.00;;;10.30;99.90;;;;;;6177040;23;20005;-90
2022/12/25 11:51:31;;;;;;;0.00;0.00;;;10.30;99.90;;;;;;6173786;23;20434;-91
2022/12/25 11:54:04;;;;;;;0.00;0.00;;;10.10;99.90;;;;;;6176240;23;20005;-91
2022/12/25 11:56:30;;;;;;;0.00;0.00;;;10.30;99.90;;;;;;6175222;23;20012;-92
2022/12/25 11:59:14;;;;;;;0.03;0.03;;;10.10;99.90;;;;;;6175645;23;20005;-93
2022/12/25 12:01:51;;;;;;;0.10;0.10;;;10.30;99.90;;;;;;6175238;23;20457;-91
2022/12/25 12:04:36;;;;;;;0.00;0.00;;;10.00;99.90;;;;;;6173486;23;20037;-90
2022/12/25 12:07:12;;;;;;;0.00;0.00;;;10.20;99.90;;;;;;6172925;23;20009;-89
2022/12/25 12:10:08;;;;;;;0.00;0.00;;;10.20;99.90;;;;;;6173648;23;20025;-91
2022/12/25 12:12:53;;;;;;;0.00;0.00;;;10.20;99.90;;;;;;6175462;23;20012;-90
2022/12/25 12:15:46;;;;;;;0.00;0.00;;;10.30;99.90;;;;;;6174283;23;20001;-88
2022/12/25 12:18:36;;;;;;;0.00;0.00;;;10.40;99.90;;;;;;6170129;23;20017;-89
2022/12/25 12:21:21;;;;;;;0.10;0.10;;;10.30;99.90;;;;;;6171475;23;20401;-92
2022/12/25 12:23:59;;;;;;;0.10;0.10;;;10.40;99.90;;;;;;6179142;23;20012;-90
2022/12/25 12:26:33;;;;;;;0.00;0.00;;;10.30;99.90;;;;;;6179321;23;19997;-91
2022/12/25 12:29:02;;;;;;;0.00;0.00;;;10.30;99.90;;;;;;6171736;23;20008;-91
2022/12/25 12:31:42;;;;;;;0.00;0.00;;;10.20;99.90;;;;;;6172099;23;20012;-89
2022/12/25 12:34:28;;;;;;;0.00;0.00;;;10.30;99.90;;;;;;6171723;23;20008;-91
2022/12/25 12:37:04;;;;;;;0.00;0.00;;;10.10;99.90;;;;;;6172340;23;20005;-91
2022/12/25 12:39:37;;;;;;;0.10;0.10;;;10.40;99.90;;;;;;6173684;23;20009;-89
2022/12/25 12:42:16;;;;;;;0.00;0.00;;;10.40;99.90;;;;;;6172902;23;20346;-91
2022/12/25 12:44:43;;;;;;;0.08;0.08;;;10.40;99.90;;;;;;6169829;23;20089;-90
2022/12/25 12:47:36;;;;;;;0.00;0.00;;;10.30;99.90;;;;;;6169899;23;20005;-90
2022/12/25 12:50:03;;;;;;;0.00;0.00;;;10.30;99.90;;;;;;6172845;23;20023;-90
2022/12/25 12:52:33;;;;;;;0.05;0.05;;;10.30;99.90;;;;;;6166407;23;20012;-91
2022/12/25 12:55:06;;;;;;;0.00;0.00;;;10.10;99.90;;;;;;6169972;23;20005;-89
2022/12/25 12:57:40;;;;;;;0.00;0.00;;;10.40;99.90;;;;;;6170144;23;20016;-88
2022/12/25 13:00:17;;;;;;;0.00;0.00;;;10.20;99.90;;;;;;6170053;23;20009;-90
2022/12/25 13:03:22;;;;;;;0.00;0.00;;;10.50;99.90;;;;;;6168761;23;20008;-89
2022/12/25 13:05:56;;;;;;;0.00;0.00;;;10.40;99.90;;;;;;6169626;23;20005;-89
2022/12/25 13:08:33;;;;;;;0.00;0.00;;;10.40;99.90;;;;;;6167449;23;20288;-90
2022/12/25 13:11:23;;;;;;;0.00;0.00;;;10.40;99.90;;;;;;6166865;23;20088;-89
2022/12/25 13:13:52;;;;;;;0.10;0.10;;;10.40;99.90;;;;;;6156798;23;20016;-89
2022/12/25 13:16:34;;;;;;;0.00;0.00;;;10.30;99.90;;;;;;6166926;23;20020;-90
2022/12/25 13:19:06;;;;;;;0.00;0.00;;;10.30;99.90;;;;;;6167277;23;20236;-90
2022/12/25 13:21:32;;;;;;;0.00;0.00;;;9.80;99.90;;;;;;6167353;23;20009;-91
2022/12/25 13:24:00;;;;;;;0.00;0.00;;;10.50;99.90;;;;;;6167510;23;20370;-90
2022/12/25 13:26:26;;;;;;;0.00;0.00;;;;;;;;;;6168483;23;20004;-90
2022/12/25 13:28:54;;;;;;;0.00;0.00;;;;;;;;;;6167085;23;20005;-91
2022/12/25 13:31:25;;;;;;;0.00;0.00;;;10.40;99.90;;;;;;6167641;23;20033;-90
2022/12/25 13:33:51;;;;;;;0.08;0.08;;;;;;;;;;6167528;23;20005;-90
2022/12/25 13:36:17;;;;;;;0.00;0.00;;;10.30;99.90;;;;;;6168425;23;20089;-90
2022/12/25 13:38:48;;;;;;;0.00;0.00;;;10.20;99.90;;;;;;6166915;23;20494;-90
2022/12/25 13:44:19;;;;;;;0.00;0.00;;;10.20;99.90;;;;;;6165662;23;20369;-93
2022/12/25 13:46:45;;;;;;;0.00;0.00;;;;;;;;;;6165241;23;20001;-90
2022/12/25 13:49:20;;;;;;;0.00;0.00;;;10.20;99.90;;;;;;6164556;23;20005;-91
2022/12/25 13:51:47;;;;;;;0.00;0.00;;;;;;;;;;6164680;23;20012;-91
2022/12/25 13:54:15;;;;;;;0.00;0.00;;;10.30;99.90;;;;;;6162498;23;20013;-91
2022/12/25 13:56:53;;;;;;;0.00;0.00;;;10.30;99.90;;;;;;6167433;23;20005;-90
2022/12/25 13:59:20;;;;;;;0.00;0.00;;;10.20;99.90;;;;;;6166157;23;20028;-90
2022/12/25 14:01:47;;;;;;;0.05;0.05;;;10.20;99.90;;;;;;6165107;23;20040;-91
2022/12/25 14:04:22;;;;;;;0.00;0.00;;;11.50;99.90;;;;;;6165030;23;20001;-91
2022/12/25 14:06:49;;;;;;;0.00;0.00;;;10.10;99.90;;;;;;6165469;23;19997;-89
2022/12/25 14:09:15;;;;;;;0.00;0.00;;;10.10;99.90;;;;;;6165260;23;20060;-89
2022/12/25 14:11:44;;;;;;;0.00;0.00;;;10.10;99.90;;;;;;6165279;23;20005;-91
2022/12/25 14:14:19;;;;;;;0.00;0.00;;;10.10;99.90;;;;;;6164893;23;20116;-91
2022/12/25 14:16:48;;;;;;;0.00;0.00;;;10.00;99.90;;;;;;6163828;23;20069;-90
2022/12/25 14:19:26;;;;;;;0.00;0.00;;;10.90;99.90;;;;;;6165496;23;20012;-89
2022/12/25 14:22:00;;;;;;;0.00;0.00;;;10.30;99.90;;;;;;6164798;23;20016;-89
2022/12/25 14:24:28;;;;;;;0.00;0.00;;;10.40;99.90;;;;;;6163426;23;20005;-91
2022/12/25 14:27:21;;;;;;;0.00;0.00;;;9.90;99.90;;;;;;6165463;23;20009;-89
